Time;durP1;ratioP1;P1;durP2;ratioP2;P2;SDS_P1;SDS_P2;PMS_P1;PMS_P2;Temp;Humidity;BMP_temperature;BMP_pressure;BME280_temperature;BME280_humidity;BME280_pressure;Samples;Min_cycle;Max_cycle;Signal;HPM_P1;HPM_P2
2023/09/22 00:02:25;;;;;;;5.45;3.70;;;14.30;99.90;;;;;;5034810;28;20056;-84
2023/09/22 00:04:51;;;;;;;6.15;4.05;;;14.30;99.90;;;;;;5047160;28;20487;-83
2023/09/22 00:07:17;;;;;;;5.85;3.72;;;14.30;99.90;;;;;;5034765;28;20043;-83
2023/09/22 00:09:43;;;;;;;5.95;3.50;;;14.30;99.90;;;;;;5049212;28;20076;-84
2023/09/22 00:12:09;;;;;;;5.80;3.78;;;14.30;99.90;;;;;;5052258;28;21901;-86
2023/09/22 00:14:35;;;;;;;5.68;3.78;;;14.30;99.90;;;;;;5016193;28;20143;-78
2023/09/22 00:17:02;;;;;;;5.18;3.63;;;14.30;99.90;;;;;;5035080;28;20041;-84
2023/09/22 00:19:28;;;;;;;4.93;3.60;;;14.30;99.90;;;;;;5018693;28;20124;-76
2023/09/22 00:21:57;;;;;;;5.57;3.63;;;14.30;99.90;;;;;;5035845;28;20052;-80
2023/09/22 00:24:22;;;;;;;6.15;3.33;;;14.20;99.90;;;;;;5038801;28;20066;-81
2023/09/22 00:26:48;;;;;;;4.43;3.40;;;14.20;99.90;;;;;;5033308;28;20177;-81
2023/09/22 00:29:14;;;;;;;4.40;3.50;;;14.20;99.90;;;;;;5031775;28;20048;-77
2023/09/22 00:31:40;;;;;;;4.85;3.53;;;14.10;99.90;;;;;;5031614;28;20071;-83
2023/09/22 00:34:06;;;;;;;4.18;3.17;;;14.10;99.90;;;;;;5033192;28;20041;-82
2023/09/22 00:36:33;;;;;;;5.97;3.80;;;14.10;99.90;;;;;;5020432;28;20091;-79
2023/09/22 00:38:59;;;;;;;5.00;3.70;;;14.00;99.90;;;;;;5032272;28;20116;-78
2023/09/22 00:41:25;;;;;;;5.07;3.38;;;14.00;99.90;;;;;;5034463;28;20053;-83
2023/09/22 00:43:50;;;;;;;5.00;3.40;;;14.00;99.90;;;;;;5032023;28;20102;-75
2023/09/22 00:46:21;;;;;;;6.53;3.65;;;14.00;99.90;;;;;;5026155;28;20040;-80
2023/09/22 00:48:48;;;;;;;5.72;3.75;;;14.00;99.90;;;;;;5044922;28;20495;-82
2023/09/22 00:51:19;;;;;;;6.20;3.80;;;14.00;99.90;;;;;;5052226;28;20438;-78
2023/09/22 00:53:47;;;;;;;5.82;3.90;;;14.00;99.90;;;;;;5012816;28;20049;-77
2023/09/22 00:56:19;;;;;;;5.43;3.85;;;14.00;99.90;;;;;;5032937;28;20055;-79
2023/09/22 00:58:45;;;;;;;6.05;4.20;;;14.00;99.90;;;;;;5016810;28;20040;-77
2023/09/22 01:01:11;;;;;;;6.43;4.07;;;13.90;99.90;;;;;;5037793;28;20049;-76
2023/09/22 01:03:37;;;;;;;5.28;3.70;;;14.00;99.90;;;;;;5000764;28;20163;-81
2023/09/22 01:06:09;;;;;;;6.07;3.90;;;13.90;99.90;;;;;;5034845;28;20047;-78
2023/09/22 01:08:36;;;;;;;5.32;3.67;;;13.90;99.90;;;;;;5031873;28;20040;-77
2023/09/22 01:11:02;;;;;;;5.70;3.50;;;13.80;99.90;;;;;;5023488;28;20051;-76
2023/09/22 01:13:28;;;;;;;4.97;3.30;;;13.80;99.90;;;;;;5013842;28;20514;-79
2023/09/22 01:15:55;;;;;;;4.97;3.53;;;13.80;99.90;;;;;;5021182;28;20052;-77
2023/09/22 01:18:21;;;;;;;3.60;2.83;;;13.80;99.90;;;;;;5019703;28;20043;-77
2023/09/22 01:20:48;;;;;;;4.47;3.00;;;13.70;99.90;;;;;;5035290;28;20187;-80
2023/09/22 01:23:14;;;;;;;4.85;3.15;;;13.70;99.90;;;;;;5002478;28;20083;-76
2023/09/22 01:25:42;;;;;;;4.03;2.70;;;13.60;99.90;;;;;;5034021;28;20135;-78
2023/09/22 01:28:09;;;;;;;3.30;2.53;;;13.60;99.90;;;;;;5027219;28;21903;-79
2023/09/22 01:30:36;;;;;;;4.15;2.55;;;13.60;99.90;;;;;;5039903;28;20150;-79
2023/09/22 01:33:03;;;;;;;4.40;2.53;;;13.60;99.90;;;;;;5034082;28;20044;-80
2023/09/22 01:35:33;;;;;;;3.08;2.20;;;13.50;99.90;;;;;;5038937;28;20102;-77
2023/09/22 01:38:15;;;;;;;2.60;2.00;;;13.50;99.90;;;;;;5050854;28;20054;-83
2023/09/22 01:40:43;;;;;;;2.70;1.88;;;13.50;99.90;;;;;;5038560;28;20125;-77
2023/09/22 01:43:09;;;;;;;5.30;2.22;;;13.50;99.90;;;;;;5012120;28;20058;-80
2023/09/22 01:45:35;;;;;;;3.38;2.30;;;13.50;99.90;;;;;;5012623;28;20135;-77
2023/09/22 01:48:02;;;;;;;3.58;1.75;;;13.50;99.90;;;;;;5035014;28;20052;-78
2023/09/22 01:50:28;;;;;;;2.72;2.03;;;13.50;99.90;;;;;;5039159;28;20122;-83
2023/09/22 01:52:54;;;;;;;3.80;2.10;;;13.60;99.90;;;;;;5042678;28;20513;-79
2023/09/22 01:55:20;;;;;;;3.30;2.13;;;13.60;99.90;;;;;;5037082;28;20044;-79
2023/09/22 01:57:52;;;;;;;3.28;1.80;;;13.60;99.90;;;;;;5029535;28;20044;-82
2023/09/22 02:00:18;;;;;;;3.35;1.77;;;13.70;99.90;;;;;;5039444;28;20856;-81
2023/09/22 02:02:47;;;;;;;4.25;2.35;;;13.60;99.90;;;;;;5048020;28;20654;-83
2023/09/22 02:05:16;;;;;;;4.57;2.38;;;13.60;99.90;;;;;;5041982;28;20048;-82
2023/09/22 02:07:43;;;;;;;3.97;2.00;;;13.50;99.90;;;;;;5032660;28;20471;-80
2023/09/22 02:10:10;;;;;;;3.00;2.00;;;13.50;99.90;;;;;;5043449;28;20045;-82
2023/09/22 02:12:37;;;;;;;5.93;2.40;;;13.50;99.90;;;;;;5045859;28;20547;-80
2023/09/22 02:15:04;;;;;;;4.13;2.30;;;13.50;99.90;;;;;;5031561;28;20106;-77
2023/09/22 02:17:31;;;;;;;3.53;2.15;;;13.40;99.90;;;;;;5044533;28;20751;-77
2023/09/22 02:19:57;;;;;;;3.08;2.00;;;13.40;99.90;;;;;;5034490;28;20044;-78
2023/09/22 02:22:23;;;;;;;4.15;2.47;;;13.40;99.90;;;;;;5033958;28;20040;-78
2023/09/22 02:24:49;;;;;;;3.38;2.17;;;13.30;99.90;;;;;;5037924;28;20483;-80
2023/09/22 02:27:15;;;;;;;2.83;2.05;;;13.30;99.90;;;;;;5037017;28;20041;-76
2023/09/22 02:29:41;;;;;;;3.47;2.30;;;13.30;99.90;;;;;;5035933;28;20044;-75
2023/09/22 02:32:06;;;;;;;3.47;1.88;;;13.30;99.90;;;;;;5026059;28;20384;-79
2023/09/22 02:34:33;;;;;;;4.13;2.10;;;13.30;99.90;;;;;;5041817;28;20066;-77
2023/09/22 02:37:00;;;;;;;5.75;2.05;;;13.20;99.90;;;;;;5018548;28;20060;-79
2023/09/22 02:39:26;;;;;;;4.68;2.17;;;13.20;99.90;;;;;;5017018;28;20101;-78
2023/09/22 02:41:55;;;;;;;4.25;2.20;;;13.20;99.90;;;;;;5037495;28;20040;-76
2023/09/22 02:44:22;;;;;;;3.75;2.10;;;13.20;99.90;;;;;;5056597;28;20085;-75
2023/09/22 02:46:49;;;;;;;4.57;2.03;;;13.20;99.90;;;;;;5015630;28;20055;-78
2023/09/22 02:49:14;;;;;;;3.33;1.60;;;13.20;99.90;;;;;;5009541;28;21700;-79
2023/09/22 02:51:40;;;;;;;3.58;1.52;;;13.20;99.90;;;;;;5012645;28;20048;-76
2023/09/22 02:54:08;;;;;;;2.45;1.25;;;13.20;99.90;;;;;;5034185;28;20040;-75
2023/09/22 02:56:42;;;;;;;4.65;1.63;;;13.30;99.90;;;;;;4991635;28;20060;-75
2023/09/22 02:59:11;;;;;;;3.22;1.58;;;13.30;99.90;;;;;;5023329;28;20111;-75
2023/09/22 03:01:37;;;;;;;3.08;1.40;;;13.30;99.90;;;;;;4978540;28;20132;-76
2023/09/22 03:04:09;;;;;;;3.08;1.27;;;13.30;99.90;;;;;;5007315;28;20045;-78
2023/09/22 03:06:41;;;;;;;2.75;1.60;;;13.40;99.90;;;;;;4994452;28;20056;-82
2023/09/22 03:09:09;;;;;;;3.47;1.60;;;13.40;99.90;;;;;;4984386;28;20081;-79
2023/09/22 03:11:36;;;;;;;8.48;1.80;;;13.40;99.90;;;;;;4985205;28;20518;-80
2023/09/22 03:14:03;;;;;;;4.85;2.03;;;13.40;99.90;;;;;;4971729;28;20224;-80
2023/09/22 03:16:29;;;;;;;6.00;2.33;;;13.40;99.90;;;;;;4999743;28;20061;-79
2023/09/22 03:18:55;;;;;;;8.30;2.60;;;13.40;99.90;;;;;;4985485;28;20081;-79
2023/09/22 03:21:22;;;;;;;5.80;3.17;;;13.30;99.90;;;;;;4987819;28;20058;-78
2023/09/22 03:23:52;;;;;;;6.45;3.70;;;13.30;99.90;;;;;;4989438;28;20057;-80
2023/09/22 03:26:19;;;;;;;5.22;3.30;;;13.30;99.90;;;;;;4985520;28;20128;-78
2023/09/22 03:28:46;;;;;;;5.90;2.88;;;13.30;99.90;;;;;;5009848;28;20061;-79
2023/09/22 03:31:12;;;;;;;4.18;2.95;;;13.30;99.90;;;;;;4978373;28;20071;-79
2023/09/22 03:33:41;;;;;;;5.63;2.85;;;13.30;99.90;;;;;;4989987;28;20076;-78
2023/09/22 03:36:12;;;;;;;4.35;3.00;;;13.30;99.90;;;;;;4970708;28;20037;-78
2023/09/22 03:38:41;;;;;;;3.80;2.70;;;13.20;99.90;;;;;;4994364;28;20049;-78
2023/09/22 03:41:07;;;;;;;4.40;2.72;;;13.20;99.90;;;;;;4996909;28;20052;-79
2023/09/22 03:43:34;;;;;;;5.05;3.20;;;13.20;99.90;;;;;;5018941;28;20055;-82
2023/09/22 03:45:59;;;;;;;5.88;3.03;;;13.20;99.90;;;;;;5034224;28;20075;-79
2023/09/22 03:48:25;;;;;;;6.03;2.90;;;13.20;99.90;;;;;;5032400;28;20160;-80
2023/09/22 03:50:51;;;;;;;5.53;3.05;;;13.20;99.90;;;;;;5017024;28;20079;-80
2023/09/22 03:53:17;;;;;;;4.03;3.13;;;13.20;99.90;;;;;;5051539;28;20049;-79
2023/09/22 03:55:46;;;;;;;4.32;3.10;;;13.20;99.90;;;;;;5054309;28;20041;-78
2023/09/22 03:58:12;;;;;;;6.65;4.50;;;13.20;99.90;;;;;;5033675;28;20141;-76
2023/09/22 04:00:38;;;;;;;4.65;3.70;;;13.20;99.90;;;;;;5018803;28;20609;-76
2023/09/22 04:03:09;;;;;;;5.38;3.95;;;13.20;99.90;;;;;;5043029;28;20275;-93
2023/09/22 04:05:38;;;;;;;5.32;3.55;;;13.20;99.90;;;;;;5032422;28;20124;-76
2023/09/22 04:08:05;;;;;;;7.50;4.13;;;13.20;99.90;;;;;;5027757;28;20714;-78
2023/09/22 04:10:32;;;;;;;9.00;4.75;;;13.20;99.90;;;;;;4989634;28;20075;-79
2023/09/22 04:12:58;;;;;;;6.50;4.50;;;13.30;99.90;;;;;;5027954;28;20048;-79
2023/09/22 04:15:24;;;;;;;7.30;4.40;;;13.30;99.90;;;;;;5043783;28;20094;-78
2023/09/22 04:17:51;;;;;;;6.65;3.92;;;13.40;99.90;;;;;;5010928;28;20776;-78
2023/09/22 04:20:26;;;;;;;6.47;3.95;;;13.40;99.90;;;;;;5037218;28;20045;-79
2023/09/22 04:22:53;;;;;;;5.72;3.67;;;13.40;99.90;;;;;;5032474;28;20052;-78
2023/09/22 04:25:29;;;;;;;5.32;3.72;;;13.40;99.90;;;;;;5014288;28;20040;-79
2023/09/22 04:28:08;;;;;;;6.82;3.95;;;13.50;99.90;;;;;;5029904;28;20127;-76
2023/09/22 04:30:38;;;;;;;6.35;4.07;;;13.50;99.90;;;;;;5015967;28;20079;-77
2023/09/22 04:33:04;;;;;;;5.20;3.80;;;13.50;99.90;;;;;;5029224;28;20102;-77
2023/09/22 04:35:34;;;;;;;5.05;3.50;;;13.50;99.90;;;;;;5010953;28;20040;-77
2023/09/22 04:38:01;;;;;;;4.70;3.40;;;13.50;99.90;;;;;;5030333;28;20052;-76
2023/09/22 04:40:35;;;;;;;5.90;2.70;;;13.50;99.90;;;;;;5018870;28;20589;-76
2023/09/22 04:43:02;;;;;;;3.40;1.92;;;13.50;99.90;;;;;;5019930;28;20101;-77
2023/09/22 04:45:29;;;;;;;4.22;2.40;;;13.50;99.90;;;;;;5034264;28;20052;-77
2023/09/22 04:47:55;;;;;;;3.97;2.47;;;13.50;99.90;;;;;;5036969;28;20501;-78
2023/09/22 04:50:22;;;;;;;4.80;2.70;;;13.50;99.90;;;;;;5020650;28;20070;-78
2023/09/22 04:52:49;;;;;;;4.63;2.28;;;13.50;99.90;;;;;;5024988;28;20064;-81
2023/09/22 04:55:20;;;;;;;6.22;2.50;;;13.50;99.90;;;;;;5002199;28;20047;-78
2023/09/22 04:57:46;;;;;;;5.55;2.90;;;13.50;99.90;;;;;;5031104;28;20052;-77
2023/09/22 05:00:15;;;;;;;5.30;2.80;;;13.50;99.90;;;;;;5032819;28;20056;-80
2023/09/22 05:02:43;;;;;;;6.15;3.78;;;13.50;99.90;;;;;;5018256;28;20084;-79
2023/09/22 05:05:10;;;;;;;7.78;3.80;;;13.50;99.90;;;;;;5019919;28;20052;-77
2023/09/22 05:07:36;;;;;;;6.20;4.35;;;13.50;99.90;;;;;;5018376;28;20222;-79
2023/09/22 05:10:03;;;;;;;8.32;4.65;;;13.50;99.90;;;;;;5020987;28;20131;-77
2023/09/22 05:12:30;;;;;;;8.60;4.88;;;13.60;99.90;;;;;;5027743;28;20052;-79
2023/09/22 05:14:58;;;;;;;7.72;4.72;;;13.60;99.90;;;;;;5041974;28;20581;-79
2023/09/22 05:17:28;;;;;;;8.18;5.40;;;13.60;99.90;;;;;;5034242;28;20048;-79
2023/09/22 05:19:54;;;;;;;9.73;5.57;;;13.60;99.90;;;;;;5037498;28;20065;-78
2023/09/22 05:22:23;;;;;;;9.98;5.57;;;13.60;99.90;;;;;;5033292;28;20452;-78
2023/09/22 05:24:49;;;;;;;10.38;5.57;;;13.60;99.90;;;;;;5039450;28;20060;-78
2023/09/22 05:27:15;;;;;;;10.93;6.40;;;13.60;99.90;;;;;;5036977;28;20416;-75
2023/09/22 05:29:41;;;;;;;8.80;6.05;;;13.60;99.90;;;;;;5017709;28;20059;-77
2023/09/22 05:32:10;;;;;;;11.13;6.43;;;13.60;99.90;;;;;;5032650;28;20045;-79
2023/09/22 05:34:42;;;;;;;9.80;6.10;;;13.50;99.90;;;;;;5020071;28;20483;-78
2023/09/22 05:37:08;;;;;;;10.93;6.50;;;13.50;99.90;;;;;;5058382;28;20052;-77
2023/09/22 05:39:34;;;;;;;9.50;6.22;;;13.50;99.90;;;;;;5036441;28;20048;-78
2023/09/22 05:42:00;;;;;;;10.90;6.68;;;13.50;99.90;;;;;;5019058;28;20111;-77
2023/09/22 05:44:28;;;;;;;11.90;5.80;;;13.50;99.90;;;;;;5050291;28;20037;-77
2023/09/22 05:46:54;;;;;;;12.40;5.97;;;13.50;99.90;;;;;;5031037;28;20048;-78
2023/09/22 05:49:23;;;;;;;10.13;6.95;;;13.50;99.90;;;;;;5048017;28;20040;-78
2023/09/22 05:51:50;;;;;;;14.68;7.15;;;13.50;99.90;;;;;;5000280;28;20057;-79
2023/09/22 05:54:16;;;;;;;11.55;6.95;;;13.50;99.90;;;;;;5038524;28;20046;-77
2023/09/22 05:56:41;;;;;;;13.57;7.60;;;13.50;99.90;;;;;;5018838;28;20056;-79
2023/09/22 05:59:07;;;;;;;12.18;8.02;;;13.50;99.90;;;;;;5049841;28;20121;-78
2023/09/22 06:01:37;;;;;;;13.20;8.93;;;13.50;99.90;;;;;;5021582;28;20901;-78
2023/09/22 06:04:06;;;;;;;15.65;8.77;;;13.50;99.90;;;;;;5017297;28;20109;-78
2023/09/22 06:06:32;;;;;;;14.02;9.05;;;13.60;99.90;;;;;;5034412;28;20052;-78
2023/09/22 06:08:59;;;;;;;16.27;9.02;;;13.60;99.90;;;;;;5035569;28;20513;-79
2023/09/22 06:11:25;;;;;;;17.48;10.32;;;13.60;99.90;;;;;;5021154;28;20048;-78
2023/09/22 06:13:51;;;;;;;18.10;10.95;;;13.60;99.90;;;;;;5034562;28;20564;-78
2023/09/22 06:16:17;;;;;;;21.88;12.45;;;13.70;99.90;;;;;;5021854;28;20044;-77
2023/09/22 06:18:43;;;;;;;18.00;11.32;;;13.70;99.90;;;;;;5015079;28;20050;-77
2023/09/22 06:21:10;;;;;;;21.85;13.52;;;13.80;99.90;;;;;;5053321;28;20044;-78
2023/09/22 06:23:36;;;;;;;22.83;14.85;;;13.50;99.90;;;;;;5030531;28;20099;-77
2023/09/22 06:26:05;;;;;;;28.52;15.70;;;13.90;99.90;;;;;;5061818;28;20050;-77
2023/09/22 06:28:31;;;;;;;23.92;15.75;;;14.00;99.90;;;;;;5037003;28;20535;-78
2023/09/22 06:31:04;;;;;;;29.77;16.65;;;14.00;99.90;;;;;;5050934;28;20083;-77
2023/09/22 06:33:30;;;;;;;25.38;17.27;;;14.10;99.90;;;;;;4995452;28;20204;-77
2023/09/22 06:35:57;;;;;;;27.63;18.75;;;14.10;99.90;;;;;;5050639;28;20577;-77
2023/09/22 06:38:23;;;;;;;30.17;17.42;;;14.10;99.90;;;;;;5033578;28;20122;-77
2023/09/22 06:40:50;;;;;;;25.15;17.60;;;14.20;99.90;;;;;;5018129;28;20083;-77
2023/09/22 06:43:16;;;;;;;27.75;18.58;;;14.30;99.90;;;;;;5034723;28;20052;-77
2023/09/22 06:45:42;;;;;;;30.63;19.33;;;14.40;99.90;;;;;;5034060;28;20497;-78
2023/09/22 06:48:09;;;;;;;25.75;18.42;;;14.50;99.90;;;;;;5032531;28;20043;-77
2023/09/22 06:50:36;;;;;;;26.40;18.17;;;14.60;99.90;;;;;;5035020;28;20163;-78
2023/09/22 06:53:02;;;;;;;29.17;18.83;;;14.70;99.90;;;;;;5046818;28;20036;-77
2023/09/22 06:55:30;;;;;;;22.42;16.02;;;14.70;99.90;;;;;;5012283;28;20044;-77
2023/09/22 06:57:59;;;;;;;21.63;14.15;;;14.70;99.90;;;;;;5033360;28;20055;-76
2023/09/22 07:00:28;;;;;;;18.63;12.57;;;14.70;99.90;;;;;;5009858;28;20044;-76
2023/09/22 07:02:55;;;;;;;18.15;12.68;;;14.60;99.90;;;;;;5012722;28;20490;-75
2023/09/22 07:05:21;;;;;;;14.73;12.30;;;14.60;99.90;;;;;;5014305;28;20044;-76
2023/09/22 07:07:49;;;;;;;18.40;12.80;;;14.50;99.90;;;;;;5008162;28;20041;-77
2023/09/22 07:10:16;;;;;;;15.57;12.00;;;14.50;99.90;;;;;;5009108;28;20090;-77
2023/09/22 07:12:42;;;;;;;20.05;12.25;;;14.50;99.90;;;;;;5016993;28;20056;-77
2023/09/22 07:15:09;;;;;;;18.27;13.10;;;14.50;99.90;;;;;;5028257;28;20041;-77
2023/09/22 07:17:36;;;;;;;16.85;12.35;;;14.40;99.90;;;;;;5025727;28;20791;-77
2023/09/22 07:20:09;;;;;;;12.82;11.43;;;14.40;99.90;;;;;;5031993;28;20063;-76
2023/09/22 07:22:35;;;;;;;17.40;11.57;;;14.40;99.90;;;;;;5031935;28;20067;-77
2023/09/22 07:25:01;;;;;;;17.65;12.48;;;14.40;99.90;;;;;;5030960;28;20127;-76
2023/09/22 07:27:27;;;;;;;14.00;11.43;;;14.50;99.90;;;;;;5033330;28;20141;-77
2023/09/22 07:29:53;;;;;;;15.20;11.32;;;14.50;99.90;;;;;;5035809;28;20048;-77
2023/09/22 07:32:20;;;;;;;13.57;10.88;;;14.50;99.90;;;;;;5036268;28;20117;-77
2023/09/22 07:34:48;;;;;;;14.50;11.50;;;14.60;99.90;;;;;;5020047;28;20069;-76
2023/09/22 07:37:18;;;;;;;14.32;10.55;;;14.60;99.90;;;;;;5028550;28;20040;-79
2023/09/22 07:39:44;;;;;;;13.27;10.27;;;14.70;99.90;;;;;;4997874;28;20082;-74
2023/09/22 07:42:10;;;;;;;14.50;9.93;;;14.80;99.90;;;;;;5027601;28;20057;-75
2023/09/22 07:44:38;;;;;;;11.52;9.27;;;14.80;99.90;;;;;;5010480;28;20053;-75
2023/09/22 07:47:10;;;;;;;8.68;7.85;;;14.90;99.90;;;;;;5026220;28;20048;-74
2023/09/22 07:49:43;;;;;;;11.07;7.00;;;15.00;99.90;;;;;;5053275;28;20391;-75
2023/09/22 07:52:10;;;;;;;9.90;6.25;;;15.10;99.90;;;;;;5018065;28;20208;-75
2023/09/22 07:54:37;;;;;;;7.70;5.50;;;15.20;99.90;;;;;;5018439;28;20126;-75
2023/09/22 07:57:03;;;;;;;6.15;5.03;;;15.30;99.90;;;;;;5017011;28;20404;-76
2023/09/22 07:59:31;;;;;;;9.70;5.70;;;15.30;99.90;;;;;;5032278;28;20044;-75
2023/09/22 08:02:02;;;;;;;8.52;4.78;;;15.40;99.90;;;;;;5028623;28;20515;-75
2023/09/22 08:04:28;;;;;;;8.10;5.07;;;15.30;99.90;;;;;;5013843;28;20051;-76
2023/09/22 08:06:53;;;;;;;6.05;4.93;;;15.30;99.90;;;;;;5015337;28;20058;-75
2023/09/22 08:09:20;;;;;;;8.63;5.35;;;15.40;99.90;;;;;;5027572;28;20049;-76
2023/09/22 08:11:47;;;;;;;7.15;5.00;;;15.30;99.90;;;;;;5016821;28;20051;-75
2023/09/22 08:14:13;;;;;;;7.30;5.60;;;15.30;99.90;;;;;;5037462;28;20395;-76
2023/09/22 08:16:39;;;;;;;8.80;5.10;;;15.40;99.90;;;;;;5032819;28;20052;-76
2023/09/22 08:19:10;;;;;;;8.15;4.60;;;15.70;99.90;;;;;;5027119;28;20638;-75
2023/09/22 08:21:37;;;;;;;6.22;3.90;;;15.80;99.90;;;;;;5024579;28;20055;-76
2023/09/22 08:24:04;;;;;;;5.95;3.60;;;16.10;99.90;;;;;;5035189;28;20049;-77
2023/09/22 08:26:30;;;;;;;4.93;3.80;;;16.30;99.90;;;;;;5022674;28;21001;-76
2023/09/22 08:28:59;;;;;;;5.72;3.97;;;16.50;99.90;;;;;;5038201;28;20050;-76
2023/09/22 08:31:29;;;;;;;6.07;3.90;;;16.70;99.90;;;;;;5041245;28;20510;-76
2023/09/22 08:33:55;;;;;;;4.60;3.72;;;16.90;99.90;;;;;;5048083;28;20048;-75
2023/09/22 08:36:21;;;;;;;5.25;3.60;;;17.00;99.90;;;;;;5010960;28;20052;-75
2023/09/22 08:38:47;;;;;;;8.25;4.60;;;17.20;99.90;;;;;;5049648;28;20540;-75
2023/09/22 08:41:19;;;;;;;5.43;4.05;;;17.20;99.90;;;;;;5032362;28;20063;-76
2023/09/22 08:43:46;;;;;;;6.20;4.03;;;17.30;99.90;;;;;;5023288;28;20052;-75
2023/09/22 08:46:12;;;;;;;4.25;3.65;;;17.40;99.90;;;;;;5029999;28;20044;-75
2023/09/22 08:48:39;;;;;;;5.00;3.75;;;17.50;99.90;;;;;;5034422;28;20837;-75
2023/09/22 08:51:05;;;;;;;6.57;3.40;;;17.50;99.90;;;;;;5034211;28;20040;-76
2023/09/22 08:53:32;;;;;;;4.72;2.90;;;17.50;99.70;;;;;;5052607;28;20050;-74
2023/09/22 08:55:58;;;;;;;5.00;3.00;;;17.40;99.40;;;;;;5018798;28;20055;-76
2023/09/22 08:58:28;;;;;;;7.88;3.30;;;17.50;99.00;;;;;;5030082;28;20606;-75
2023/09/22 09:00:54;;;;;;;4.85;3.00;;;17.50;98.60;;;;;;5048206;28;20080;-75
2023/09/22 09:03:20;;;;;;;4.30;2.72;;;17.60;98.60;;;;;;5034108;28;20053;-75
2023/09/22 09:05:47;;;;;;;6.07;2.50;;;17.60;98.20;;;;;;5032188;28;20060;-75
2023/09/22 09:08:17;;;;;;;4.63;2.45;;;17.50;98.00;;;;;;5034400;28;20037;-75
2023/09/22 09:10:47;;;;;;;3.40;2.60;;;17.40;98.20;;;;;;5013764;28;20163;-75
2023/09/22 09:13:19;;;;;;;4.65;2.75;;;17.40;98.00;;;;;;4997400;28;20060;-76
2023/09/22 09:15:50;;;;;;;4.50;2.80;;;17.30;98.10;;;;;;5012620;28;20419;-75
2023/09/22 09:18:18;;;;;;;3.47;2.72;;;17.30;98.00;;;;;;5007120;28;20040;-75
2023/09/22 09:20:49;;;;;;;4.13;2.65;;;17.20;97.90;;;;;;5023749;28;20047;-75
2023/09/22 09:23:17;;;;;;;5.50;2.50;;;17.10;97.90;;;;;;5018677;28;20386;-75
2023/09/22 09:25:45;;;;;;;4.22;2.30;;;17.10;97.70;;;;;;5039169;28;20067;-76
2023/09/22 09:28:12;;;;;;;5.43;2.35;;;17.10;97.40;;;;;;5046841;28;20056;-75
2023/09/22 09:30:46;;;;;;;5.05;2.95;;;17.00;97.30;;;;;;5048106;28;20101;-74
2023/09/22 09:33:12;;;;;;;4.97;2.80;;;17.00;97.30;;;;;;5044552;28;20123;-75
2023/09/22 09:35:40;;;;;;;4.47;2.70;;;16.90;97.30;;;;;;5045264;28;20036;-77
2023/09/22 09:38:08;;;;;;;4.68;2.58;;;16.90;97.40;;;;;;5038709;28;20130;-75
2023/09/22 09:40:38;;;;;;;3.75;2.10;;;16.90;97.40;;;;;;5051323;28;20387;-78
2023/09/22 09:43:10;;;;;;;3.35;2.05;;;16.90;97.20;;;;;;5037590;28;20532;-77
2023/09/22 09:45:45;;;;;;;3.55;2.10;;;16.90;97.10;;;;;;5034236;28;20056;-77
2023/09/22 09:48:17;;;;;;;3.78;2.53;;;16.80;97.30;;;;;;5040176;28;20055;-75
2023/09/22 09:50:45;;;;;;;4.90;2.42;;;16.70;97.70;;;;;;5020431;28;20052;-75
2023/09/22 09:53:36;;;;;;;4.25;2.33;;;16.60;98.10;;;;;;5034335;28;20140;-76
2023/09/22 09:56:05;;;;;;;3.22;2.20;;;16.50;98.30;;;;;;5033876;28;20085;-77
2023/09/22 09:58:32;;;;;;;5.05;2.60;;;16.50;99.00;;;;;;5030243;28;20495;-76
2023/09/22 10:01:00;;;;;;;6.22;2.75;;;16.40;99.10;;;;;;5023412;28;21221;-77
2023/09/22 10:03:27;;;;;;;3.97;2.72;;;16.40;99.30;;;;;;5046113;28;20503;-74
2023/09/22 10:05:56;;;;;;;3.72;2.17;;;16.40;99.60;;;;;;5054596;28;20036;-75
2023/09/22 10:08:27;;;;;;;4.70;2.47;;;16.40;99.70;;;;;;5036807;28;20056;-78
2023/09/22 10:10:58;;;;;;;4.30;2.35;;;16.40;99.80;;;;;;5035818;28;20048;-76
2023/09/22 10:13:24;;;;;;;4.85;2.85;;;16.30;99.90;;;;;;5036765;28;20119;-78
2023/09/22 10:15:51;;;;;;;5.03;2.88;;;16.40;99.90;;;;;;5032986;28;20125;-77
2023/09/22 10:18:18;;;;;;;5.30;2.80;;;16.40;99.90;;;;;;5036700;28;20348;-76
2023/09/22 10:20:46;;;;;;;4.65;2.70;;;16.40;99.90;;;;;;5024171;28;20411;-76
2023/09/22 10:23:18;;;;;;;3.53;2.95;;;16.40;99.90;;;;;;5023682;28;20049;-76
2023/09/22 10:26:14;;;;;;;3.15;2.75;;;16.40;99.90;;;;;;5021842;28;20135;-76
2023/09/22 10:28:40;;;;;;;3.30;3.00;;;16.40;99.90;;;;;;5033311;28;20057;-75
2023/09/22 10:31:06;;;;;;;4.43;3.00;;;16.50;99.90;;;;;;5028083;28;20094;-77
2023/09/22 10:33:32;;;;;;;3.10;2.80;;;16.50;99.90;;;;;;5033746;28;20052;-78
2023/09/22 10:36:00;;;;;;;4.50;2.90;;;16.50;99.90;;;;;;5034344;28;20052;-77
2023/09/22 10:38:26;;;;;;;6.05;3.00;;;16.50;99.90;;;;;;4999688;28;20135;-78
2023/09/22 10:41:01;;;;;;;3.35;2.75;;;16.50;99.90;;;;;;5040674;28;20047;-77
2023/09/22 10:43:30;;;;;;;4.67;2.43;;;16.50;99.90;;;;;;5043375;28;20352;-76
2023/09/22 10:45:57;;;;;;;3.20;2.10;;;16.50;99.90;;;;;;5037390;28;20091;-77
2023/09/22 10:48:22;;;;;;;3.63;1.98;;;16.50;99.90;;;;;;5011183;28;20693;-77
2023/09/22 10:50:50;;;;;;;4.20;2.13;;;16.40;99.90;;;;;;5015498;28;20135;-78
2023/09/22 10:53:16;;;;;;;3.35;2.00;;;16.40;99.90;;;;;;5045080;28;20060;-76
2023/09/22 10:55:43;;;;;;;3.17;2.08;;;16.30;99.90;;;;;;5014015;28;20074;-78
2023/09/22 10:58:21;;;;;;;3.58;2.35;;;16.30;99.90;;;;;;5026869;28;20052;-76
2023/09/22 11:00:59;;;;;;;2.95;2.10;;;16.20;99.90;;;;;;5039905;28;20052;-77
2023/09/22 11:03:26;;;;;;;3.67;2.25;;;16.10;99.90;;;;;;5043225;28;20057;-75
2023/09/22 11:06:00;;;;;;;3.33;2.13;;;16.00;99.90;;;;;;5044742;28;20135;-77
2023/09/22 11:08:27;;;;;;;3.38;2.38;;;16.00;99.90;;;;;;5057091;28;20044;-79
2023/09/22 11:10:55;;;;;;;4.88;2.42;;;16.00;99.90;;;;;;5038102;28;20033;-78
2023/09/22 11:13:22;;;;;;;3.97;2.22;;;16.00;99.90;;;;;;5023170;28;20045;-78
2023/09/22 11:15:56;;;;;;;2.88;2.33;;;16.10;99.90;;;;;;5040232;28;20086;-78
2023/09/22 11:18:28;;;;;;;3.97;2.40;;;16.10;99.90;;;;;;5028722;28;20049;-78
2023/09/22 11:20:57;;;;;;;3.33;2.17;;;16.00;99.90;;;;;;5044656;28;20044;-78
2023/09/22 11:23:27;;;;;;;3.25;2.88;;;15.90;99.90;;;;;;5044286;28;20106;-78
2023/09/22 11:25:54;;;;;;;6.00;2.58;;;15.90;99.90;;;;;;5048780;28;20072;-78
2023/09/22 11:28:19;;;;;;;4.63;2.38;;;15.90;99.90;;;;;;5028957;28;20491;-78
2023/09/22 11:30:46;;;;;;;3.30;2.40;;;15.80;99.90;;;;;;5042641;28;20052;-78
2023/09/22 11:33:17;;;;;;;3.50;2.30;;;15.80;99.90;;;;;;5043336;28;20052;-78
2023/09/22 11:35:43;;;;;;;3.47;2.25;;;15.70;99.90;;;;;;5043129;28;20097;-78
2023/09/22 11:38:28;;;;;;;3.55;2.28;;;15.70;99.90;;;;;;5060748;28;20053;-77
2023/09/22 11:41:22;;;;;;;2.83;1.55;;;15.80;99.90;;;;;;5065394;28;20526;-77
2023/09/22 11:43:52;;;;;;;4.13;1.50;;;15.90;99.90;;;;;;5043365;28;20058;-77
2023/09/22 11:46:28;;;;;;;4.50;1.55;;;16.00;99.90;;;;;;5062563;28;20053;-76
2023/09/22 11:49:05;;;;;;;2.50;1.50;;;16.20;99.90;;;;;;5027121;28;20317;-77
2023/09/22 11:51:59;;;;;;;3.28;1.50;;;16.30;99.90;;;;;;5063029;28;20578;-77
2023/09/22 11:54:29;;;;;;;2.90;1.50;;;16.70;99.90;;;;;;5057577;28;20049;-76
2023/09/22 11:57:00;;;;;;;2.88;1.65;;;17.30;99.90;;;;;;5046204;28;20095;-77
2023/09/22 11:59:36;;;;;;;2.60;1.40;;;17.80;99.90;;;;;;5044197;28;20077;-77
2023/09/22 12:02:04;;;;;;;4.05;1.60;;;18.30;99.90;;;;;;5019850;28;20044;-77
2023/09/22 12:04:30;;;;;;;2.17;1.30;;;18.80;99.30;;;;;;5043381;28;20095;-77
2023/09/22 12:06:56;;;;;;;3.38;1.23;;;18.90;98.80;;;;;;5043251;28;20055;-77
2023/09/22 12:09:22;;;;;;;3.22;1.10;;;19.00;98.00;;;;;;5037574;28;20499;-77
2023/09/22 12:11:48;;;;;;;1.83;0.90;;;18.90;97.60;;;;;;5042646;28;20102;-78
2023/09/22 12:14:15;;;;;;;2.70;1.05;;;18.70;97.50;;;;;;5039130;28;20441;-77
2023/09/22 12:16:40;;;;;;;2.53;0.98;;;18.50;97.50;;;;;;5045916;28;20049;-78
2023/09/22 12:19:06;;;;;;;3.67;1.30;;;18.40;97.40;;;;;;5039699;28;20380;-78
2023/09/22 12:21:32;;;;;;;3.33;1.00;;;18.40;97.30;;;;;;5045540;28;20044;-77
2023/09/22 12:23:59;;;;;;;1.35;0.80;;;18.60;96.90;;;;;;5024723;28;20393;-78
2023/09/22 12:26:25;;;;;;;2.72;0.90;;;19.10;96.30;;;;;;5041140;28;20068;-78
2023/09/22 12:28:51;;;;;;;2.83;0.63;;;19.60;95.20;;;;;;5026548;28;20091;-78
2023/09/22 12:31:19;;;;;;;2.83;0.80;;;20.00;93.90;;;;;;5044580;28;20482;-77
2023/09/22 12:33:49;;;;;;;1.85;0.70;;;20.10;91.50;;;;;;5050906;28;20055;-77
2023/09/22 12:36:16;;;;;;;1.52;0.57;;;20.20;90.30;;;;;;5027528;28;20177;-77
2023/09/22 12:38:43;;;;;;;1.33;0.52;;;20.30;86.50;;;;;;5047672;28;20618;-77
2023/09/22 12:41:10;;;;;;;2.60;0.80;;;20.50;77.80;;;;;;5047786;28;20225;-77
2023/09/22 12:43:36;;;;;;;1.38;0.43;;;20.60;69.60;;;;;;5027386;28;20048;-77
2023/09/22 12:46:09;;;;;;;0.70;0.40;;;20.60;65.00;;;;;;5047226;28;20063;-77
2023/09/22 12:48:39;;;;;;;1.70;0.50;;;20.60;55.00;;;;;;5031574;28;20053;-77